createdAt,value
2023-11-21T00:00:44.776Z,57.65
2023-11-21T00:03:14.669Z,57.60
2023-11-21T00:05:41.489Z,58.39
2023-11-21T00:08:11.274Z,58.45
2023-11-21T00:10:38.110Z,59.10
2023-11-21T00:13:04.879Z,59.40
2023-11-21T00:15:31.701Z,59.09
2023-11-21T00:17:58.496Z,58.75
2023-11-21T00:20:28.332Z,58.77
2023-11-21T00:22:55.123Z,57.94
2023-11-21T00:25:21.988Z,57.80
2023-11-21T00:27:48.789Z,58.87
2023-11-21T00:30:18.583Z,57.78
2023-11-21T00:32:45.413Z,57.63
2023-11-21T00:35:15.216Z,57.19
2023-11-21T00:37:42.069Z,56.71
2023-11-21T00:40:11.914Z,55.99
2023-11-21T00:42:38.763Z,56.23
2023-11-21T00:45:05.564Z,56.85
2023-11-21T00:47:32.449Z,58.01
2023-11-21T00:49:59.297Z,57.57
2023-11-21T00:52:26.155Z,57.04
2023-11-21T00:54:52.929Z,58.01
2023-11-21T00:57:19.712Z,58.57
2023-11-21T00:59:46.519Z,58.32
2023-11-21T01:02:13.420Z,58.12
2023-11-21T01:04:40.264Z,59.52
2023-11-21T01:07:07.057Z,60.27
2023-11-21T01:09:33.844Z,60.64
2023-11-21T01:12:03.695Z,61.53
2023-11-21T01:14:30.466Z,61.99
2023-11-21T01:16:57.303Z,62.26
2023-11-21T01:19:24.174Z,63.07
2023-11-21T01:21:50.962Z,63.32
2023-11-21T01:24:20.784Z,62.73
2023-11-21T01:26:47.593Z,63.73
2023-11-21T01:29:14.391Z,61.89
2023-11-21T01:31:44.428Z,60.76
2023-11-21T01:34:14.315Z,60.99
2023-11-21T01:36:41.079Z,61.88
2023-11-21T01:39:10.919Z,61.22
2023-11-21T01:41:37.701Z,62.47
2023-11-21T01:44:04.516Z,62.13
2023-11-21T01:46:31.273Z,62.36
2023-11-21T01:49:01.133Z,63.17
2023-11-21T01:51:27.891Z,64.10
2023-11-21T01:53:57.686Z,65.73
2023-11-21T01:56:27.454Z,66.55
2023-11-21T01:58:57.282Z,66.50
2023-11-21T02:01:24.061Z,67.16
2023-11-21T02:03:51.013Z,67.44
2023-11-21T02:06:17.775Z,66.62
2023-11-21T02:08:47.599Z,67.30
2023-11-21T02:11:14.374Z,68.00
2023-11-21T02:13:44.472Z,69.09
2023-11-21T02:16:11.478Z,69.59
2023-11-21T02:18:38.374Z,69.38
2023-11-21T02:21:05.182Z,70.17
2023-11-21T02:23:31.970Z,68.99
2023-11-21T02:25:58.766Z,68.94
2023-11-21T02:28:28.602Z,68.89
2023-11-21T02:30:55.422Z,68.61
2023-11-21T02:33:25.330Z,68.70
2023-11-21T02:35:52.092Z,67.77
2023-11-21T02:38:18.927Z,68.21
2023-11-21T02:40:45.892Z,68.81
2023-11-21T02:43:12.791Z,69.47
2023-11-21T02:45:42.578Z,69.40
2023-11-21T02:48:09.478Z,69.54
2023-11-21T02:50:36.236Z,69.76
2023-11-21T02:53:02.996Z,68.94
2023-11-21T02:55:29.821Z,68.70
2023-11-21T02:57:59.728Z,68.70
2023-11-21T03:00:26.607Z,69.62
2023-11-21T03:02:53.441Z,70.19
2023-11-21T03:05:23.266Z,70.52
2023-11-21T03:07:50.140Z,69.94
2023-11-21T03:10:21.143Z,70.11
2023-11-21T03:12:50.927Z,69.91
2023-11-21T03:15:17.743Z,70.23
2023-11-21T03:17:47.649Z,69.90
2023-11-21T03:20:17.472Z,70.35
2023-11-21T03:22:44.404Z,69.84
2023-11-21T03:25:14.427Z,69.36
2023-11-21T03:27:41.286Z,69.67
2023-11-21T03:30:08.069Z,69.63
2023-11-21T03:32:34.828Z,70.12
2023-11-21T03:35:01.693Z,70.68
2023-11-21T03:37:28.747Z,70.79
2023-11-21T03:39:55.978Z,70.35
2023-11-21T03:42:22.753Z,69.70
2023-11-21T03:44:52.573Z,68.86
2023-11-21T03:47:19.343Z,69.04
2023-11-21T03:49:46.214Z,69.37
2023-11-21T03:52:16.151Z,69.71
2023-11-21T03:54:42.979Z,69.16
2023-11-21T03:57:09.738Z,69.03
2023-11-21T03:59:36.564Z,69.11
2023-11-21T04:02:03.413Z,68.31
2023-11-21T04:04:33.303Z,67.97
2023-11-21T04:07:03.233Z,68.44
2023-11-21T04:09:30.029Z,69.70
2023-11-21T04:11:56.799Z,69.63
2023-11-21T04:14:23.584Z,69.70
2023-11-21T04:16:50.403Z,69.52
2023-11-21T04:19:17.269Z,69.74
2023-11-21T04:21:44.079Z,69.54
2023-11-21T04:24:10.879Z,70.06
2023-11-21T04:26:37.650Z,71.00
2023-11-21T04:29:04.429Z,71.19
2023-11-21T04:31:31.275Z,71.27
2023-11-21T04:33:58.043Z,71.97
2023-11-21T04:36:24.860Z,71.03
2023-11-21T04:38:54.683Z,71.06
2023-11-21T04:41:24.467Z,70.84
2023-11-21T04:43:54.351Z,70.58
2023-11-21T04:46:21.318Z,70.46
2023-11-21T04:48:48.160Z,70.58
2023-11-21T04:51:14.988Z,70.59
2023-11-21T04:53:44.789Z,70.75
2023-11-21T04:56:14.582Z,70.25
2023-11-21T04:58:41.428Z,70.90
2023-11-21T05:01:08.790Z,69.25
2023-11-21T05:03:35.810Z,68.79
2023-11-21T05:06:02.727Z,68.54
2023-11-21T05:08:29.568Z,69.67
2023-11-21T05:10:59.401Z,70.06
2023-11-21T05:13:26.220Z,70.20
2023-11-21T05:15:53.074Z,69.44
2023-11-21T05:18:19.918Z,68.57
2023-11-21T05:20:49.752Z,67.82
2023-11-21T05:23:19.565Z,68.47
2023-11-21T05:25:46.378Z,68.97
2023-11-21T05:28:16.208Z,69.30
2023-11-21T05:30:43.043Z,68.54
2023-11-21T05:33:09.925Z,69.21
2023-11-21T05:35:36.751Z,69.32
2023-11-21T05:38:03.559Z,69.29
2023-11-21T05:40:30.369Z,70.06
2023-11-21T05:43:00.284Z,70.01
2023-11-21T05:45:27.094Z,70.54
2023-11-21T05:47:53.917Z,70.97
2023-11-21T05:50:20.728Z,70.81
2023-11-21T05:52:47.438Z,70.31
2023-11-21T05:55:14.450Z,70.83
2023-11-21T05:57:41.292Z,70.72
2023-11-21T06:00:07.888Z,70.56
2023-11-21T06:02:34.525Z,70.95
2023-11-21T06:05:01.236Z,69.73
2023-11-21T06:07:27.943Z,70.10
2023-11-21T06:09:54.551Z,70.45
2023-11-21T06:12:21.186Z,70.13
2023-11-21T06:14:47.798Z,69.85
2023-11-21T06:17:14.522Z,70.65
2023-11-21T06:19:41.212Z,70.00
2023-11-21T06:22:07.851Z,70.16
2023-11-21T06:24:34.476Z,70.08
2023-11-21T06:27:01.129Z,69.63
2023-11-21T06:29:27.768Z,70.37
2023-11-21T06:31:54.541Z,70.58
2023-11-21T06:34:21.199Z,70.18
2023-11-21T06:36:47.847Z,70.61
2023-11-21T06:39:14.442Z,70.77
2023-11-21T06:41:41.100Z,70.76
2023-11-21T06:44:07.854Z,70.70
2023-11-21T06:46:34.647Z,70.52
2023-11-21T06:49:01.332Z,70.62
2023-11-21T06:51:28.115Z,70.79
2023-11-21T06:53:54.889Z,70.72
2023-11-21T06:56:21.713Z,71.05
2023-11-21T06:58:48.635Z,70.83
2023-11-21T07:01:15.442Z,70.47
2023-11-21T07:03:42.401Z,70.51
2023-11-21T07:06:09.247Z,70.49
2023-11-21T07:08:39.120Z,70.19
2023-11-21T07:11:07.238Z,70.82
2023-11-21T07:13:34.079Z,70.36
2023-11-21T07:16:00.966Z,70.47
2023-11-21T07:18:28.901Z,70.25
2023-11-21T07:20:55.688Z,70.94
2023-11-21T07:23:22.542Z,70.71
2023-11-21T07:25:49.380Z,71.42
2023-11-21T07:28:16.227Z,71.33
2023-11-21T07:30:43.016Z,71.64
2023-11-21T07:33:12.879Z,71.34
2023-11-21T07:35:39.754Z,70.83
2023-11-21T07:38:06.636Z,70.39
2023-11-21T07:40:33.558Z,70.02
2023-11-21T07:43:00.468Z,69.17
2023-11-21T07:45:32.537Z,69.88
2023-11-21T07:48:02.479Z,69.79
2023-11-21T07:50:29.256Z,69.40
2023-11-21T07:52:56.131Z,69.46
2023-11-21T07:55:22.970Z,69.39
2023-11-21T07:57:49.756Z,71.13
2023-11-21T08:00:16.612Z,70.98
2023-11-21T08:02:44.077Z,70.44
2023-11-21T08:05:21.665Z,70.60
2023-11-21T08:07:55.073Z,70.89
2023-11-21T08:10:23.174Z,70.81
2023-11-21T08:12:53.057Z,69.87
2023-11-21T08:15:19.912Z,69.00
2023-11-21T08:17:49.897Z,67.57
2023-11-21T08:20:16.826Z,67.76
2023-11-21T08:22:46.756Z,66.63
2023-11-21T08:25:16.622Z,65.87
2023-11-21T08:27:46.428Z,65.44
2023-11-21T08:30:13.275Z,66.37
2023-11-21T08:32:40.139Z,65.60
2023-11-21T08:35:10.121Z,69.19
2023-11-21T08:37:37.049Z,67.48
2023-11-21T08:40:03.873Z,68.41
2023-11-21T08:42:30.640Z,68.72
2023-11-21T08:44:57.449Z,68.35
2023-11-21T08:47:27.281Z,64.79
2023-11-21T08:52:21.713Z,64.05
2023-11-21T08:54:51.640Z,62.39
2023-11-21T08:57:18.467Z,63.65
2023-11-21T08:59:45.104Z,62.76
2023-11-21T09:02:11.809Z,62.60
2023-11-21T09:04:39.945Z,61.44
2023-11-21T09:07:06.799Z,61.52
2023-11-21T09:09:33.438Z,61.73
2023-11-21T09:12:00.072Z,59.58
2023-11-21T09:14:26.757Z,57.01
2023-11-21T09:16:53.482Z,59.03
2023-11-21T09:19:20.168Z,56.61
2023-11-21T09:21:46.757Z,58.67
2023-11-21T09:24:13.357Z,58.67
2023-11-21T09:26:39.977Z,56.23
2023-11-21T09:29:06.706Z,57.51
2023-11-21T09:31:33.391Z,58.99
2023-11-21T09:34:00.010Z,58.01
2023-11-21T09:36:26.619Z,56.70
2023-11-21T09:38:53.243Z,57.71
2023-11-21T09:41:19.885Z,56.16
2023-11-21T09:43:46.464Z,57.88
2023-11-21T09:46:13.109Z,56.63
2023-11-21T09:48:39.744Z,58.04
2023-11-21T09:51:06.378Z,57.24
2023-11-21T09:53:32.967Z,54.64
2023-11-21T09:55:59.616Z,55.40
2023-11-21T09:58:29.583Z,58.24
2023-11-21T10:00:56.386Z,55.77
2023-11-21T10:03:23.236Z,55.55
2023-11-21T10:05:50.068Z,56.27
2023-11-21T10:08:19.839Z,58.04
2023-11-21T10:10:46.679Z,56.59
2023-11-21T10:13:16.519Z,56.20
2023-11-21T10:15:43.293Z,53.49
2023-11-21T10:18:13.130Z,55.19
2023-11-21T10:20:42.974Z,56.40
2023-11-21T10:23:09.778Z,53.81
2023-11-21T10:25:36.658Z,51.95
2023-11-21T10:28:03.463Z,52.40
2023-11-21T10:30:30.300Z,52.64
2023-11-21T10:32:57.145Z,54.28
2023-11-21T10:35:27.060Z,51.21
2023-11-21T10:37:56.909Z,51.64
2023-11-21T10:40:23.724Z,52.01
2023-11-21T10:42:50.496Z,52.36
2023-11-21T10:45:17.292Z,55.15
2023-11-21T10:47:44.135Z,53.91
2023-11-21T10:50:10.986Z,55.37
2023-11-21T10:52:37.789Z,55.89
2023-11-21T10:55:04.530Z,51.80
2023-11-21T10:57:31.361Z,53.34
2023-11-21T10:59:58.263Z,53.88
2023-11-21T11:02:28.271Z,55.20
2023-11-21T11:04:58.200Z,56.15
2023-11-21T11:07:25.013Z,55.68
2023-11-21T11:09:51.806Z,55.53
2023-11-21T11:12:18.634Z,55.09
2023-11-21T11:14:45.495Z,54.19
2023-11-21T11:17:12.411Z,53.72
2023-11-21T11:19:39.308Z,54.52
2023-11-21T11:22:06.149Z,52.82
2023-11-21T11:24:32.910Z,57.13
2023-11-21T11:26:59.681Z,52.45
2023-11-21T11:29:26.585Z,53.74
2023-11-21T11:31:53.490Z,51.30
2023-11-21T11:34:20.266Z,51.83
2023-11-21T11:36:47.111Z,51.70
2023-11-21T11:39:16.943Z,51.11
2023-11-21T11:41:43.764Z,51.95
2023-11-21T11:44:13.610Z,49.14
2023-11-21T11:46:40.553Z,49.24
2023-11-21T11:49:10.363Z,50.84
2023-11-21T11:51:37.164Z,51.13
2023-11-21T11:54:03.971Z,50.64
2023-11-21T11:56:30.736Z,50.96
2023-11-21T11:58:57.645Z,52.77
2023-11-21T12:01:24.510Z,52.61
2023-11-21T12:03:54.490Z,53.54
2023-11-21T12:06:24.376Z,54.39
2023-11-21T12:08:51.205Z,53.52
2023-11-21T12:11:17.971Z,54.16
2023-11-21T12:13:46.823Z,54.87
2023-11-21T12:16:13.589Z,58.71
2023-11-21T12:18:40.365Z,58.46
2023-11-21T12:21:07.149Z,59.80
2023-11-21T12:23:33.940Z,59.25
2023-11-21T12:26:00.759Z,59.22
2023-11-21T12:28:30.614Z,58.05
2023-11-21T12:31:07.831Z,57.98
2023-11-21T12:33:41.477Z,55.45
2023-11-21T12:36:08.211Z,58.34
2023-11-21T12:38:35.012Z,60.18
2023-11-21T12:41:01.823Z,58.54
2023-11-21T12:43:32.556Z,57.62
2023-11-21T12:45:59.888Z,57.27
2023-11-21T12:48:26.734Z,58.17
2023-11-21T12:50:53.537Z,55.77
2023-11-21T12:53:20.336Z,55.25
2023-11-21T12:55:47.166Z,57.21
2023-11-21T12:58:14.080Z,58.25
2023-11-21T13:00:41.079Z,57.42
2023-11-21T13:03:07.958Z,58.05
2023-11-21T13:05:34.790Z,54.28
2023-11-21T13:08:01.582Z,53.06
2023-11-21T13:10:28.402Z,52.86
2023-11-21T13:12:55.227Z,51.56
2023-11-21T13:15:22.065Z,55.28
2023-11-21T13:17:48.859Z,59.68
2023-11-21T13:20:15.642Z,60.12
2023-11-21T13:22:42.456Z,59.88
2023-11-21T13:25:09.238Z,60.33
2023-11-21T13:27:39.065Z,60.39
2023-11-21T13:30:08.865Z,60.00
2023-11-21T13:32:35.668Z,60.89
2023-11-21T13:35:02.477Z,60.63
2023-11-21T13:37:29.250Z,59.50
2023-11-21T13:39:56.048Z,59.49
2023-11-21T13:42:22.936Z,58.79
2023-11-21T13:44:52.778Z,59.28
2023-11-21T13:47:19.617Z,59.26
2023-11-21T13:49:46.446Z,56.97
2023-11-21T13:52:13.344Z,54.96
2023-11-21T13:54:40.149Z,56.55
2023-11-21T13:57:09.938Z,56.59
2023-11-21T13:59:39.804Z,55.06
2023-11-21T14:02:06.677Z,55.49
2023-11-21T14:04:33.532Z,55.28
2023-11-21T14:07:00.342Z,55.89
2023-11-21T14:09:27.308Z,56.17
2023-11-21T14:11:54.099Z,56.73
2023-11-21T14:14:20.871Z,56.17
2023-11-21T14:16:47.711Z,57.10
2023-11-21T14:19:17.525Z,56.83
2023-11-21T14:21:44.305Z,57.90
2023-11-21T14:24:14.072Z,56.21
2023-11-21T14:26:40.878Z,55.50
2023-11-21T14:29:07.642Z,55.40
2023-11-21T14:31:34.559Z,52.83
2023-11-21T14:34:01.418Z,51.96
2023-11-21T14:36:28.195Z,52.15
2023-11-21T14:38:54.934Z,51.43
2023-11-21T14:41:21.707Z,51.66
2023-11-21T14:43:48.517Z,52.17
2023-11-21T14:46:15.436Z,52.65
2023-11-21T14:48:42.225Z,52.19
2023-11-21T14:51:09.052Z,52.21
2023-11-21T14:53:38.829Z,52.57
2023-11-21T14:56:08.779Z,51.70
2023-11-21T14:58:35.635Z,52.86
2023-11-21T15:01:02.450Z,52.62
2023-11-21T15:03:47.711Z,52.23
2023-11-21T15:06:14.569Z,52.33
2023-11-21T15:08:44.385Z,53.32
2023-11-21T15:11:14.233Z,52.76
2023-11-21T15:13:41.145Z,52.57
2023-11-21T15:16:11.003Z,51.70
2023-11-21T15:18:37.805Z,51.89
2023-11-21T15:21:07.671Z,52.58
2023-11-21T15:23:34.465Z,53.35
2023-11-21T15:26:01.261Z,53.34
2023-11-21T15:28:31.093Z,53.52
2023-11-21T15:31:00.920Z,53.73
2023-11-21T15:33:27.752Z,52.66
2023-11-21T15:35:54.534Z,52.66
2023-11-21T15:38:21.506Z,52.84
2023-11-21T15:40:48.317Z,53.85
2023-11-21T15:43:15.188Z,54.25
2023-11-21T15:45:45.033Z,54.70
2023-11-21T15:48:14.861Z,54.76
2023-11-21T15:50:41.700Z,54.75
2023-11-21T15:53:08.552Z,54.28
2023-11-21T15:55:35.348Z,54.81
2023-11-21T15:58:02.108Z,54.70
2023-11-21T16:00:31.891Z,54.16
2023-11-21T16:03:01.957Z,53.54
2023-11-21T16:05:28.823Z,54.54
2023-11-21T16:07:55.663Z,54.03
2023-11-21T16:10:22.574Z,54.24
2023-11-21T16:12:49.346Z,53.97
2023-11-21T16:15:16.185Z,52.71
2023-11-21T16:17:43.117Z,53.34
2023-11-21T16:20:13.046Z,54.04
2023-11-21T16:22:39.997Z,55.45
2023-11-21T16:25:06.828Z,56.72
2023-11-21T16:27:33.577Z,56.58
2023-11-21T16:30:00.362Z,56.30
2023-11-21T16:32:30.213Z,55.72
2023-11-21T16:34:57.089Z,55.17
2023-11-21T16:37:26.932Z,55.67
2023-11-21T16:39:53.697Z,56.62
2023-11-21T16:42:21.732Z,55.13
2023-11-21T16:44:52.821Z,55.62
2023-11-21T16:47:19.670Z,55.42
2023-11-21T16:49:46.596Z,54.94
2023-11-21T16:52:13.370Z,55.17
2023-11-21T16:54:40.162Z,55.53
2023-11-21T16:57:06.942Z,55.53
2023-11-21T16:59:33.737Z,55.89
2023-11-21T17:02:03.663Z,56.40
2023-11-21T17:04:30.538Z,56.61
2023-11-21T17:06:57.347Z,56.71
2023-11-21T17:09:24.181Z,57.17
2023-11-21T17:11:51.023Z,57.95
2023-11-21T17:14:20.874Z,58.14
2023-11-21T17:16:47.744Z,57.20
2023-11-21T17:19:14.607Z,57.25
2023-11-21T17:21:41.413Z,57.68
2023-11-21T17:24:08.205Z,58.10
2023-11-21T17:26:35.064Z,58.13
2023-11-21T17:29:02.007Z,58.33
2023-11-21T17:31:28.831Z,57.53
2023-11-21T17:33:55.785Z,58.97
2023-11-21T17:36:22.735Z,58.41
2023-11-21T17:38:49.706Z,58.83
2023-11-21T17:41:16.576Z,59.10
2023-11-21T17:43:43.431Z,58.81
2023-11-21T17:46:10.297Z,59.19
2023-11-21T17:48:37.121Z,59.71
2023-11-21T17:51:03.957Z,58.56
2023-11-21T17:53:33.800Z,59.03
2023-11-21T17:56:03.652Z,60.80
2023-11-21T17:58:30.439Z,60.35
2023-11-21T18:01:00.364Z,58.90
2023-11-21T18:03:27.283Z,58.20
2023-11-21T18:05:55.512Z,58.75
2023-11-21T18:08:28.407Z,58.22
2023-11-21T18:10:55.288Z,58.76
2023-11-21T18:13:22.203Z,59.76
2023-11-21T18:15:52.287Z,60.44
2023-11-21T18:18:19.105Z,59.27
2023-11-21T18:20:45.921Z,59.52
2023-11-21T18:23:15.844Z,59.62
2023-11-21T18:25:42.897Z,62.80
2023-11-21T18:28:12.782Z,61.99
2023-11-21T18:30:42.767Z,61.06
2023-11-21T18:33:09.678Z,61.53
2023-11-21T18:35:36.591Z,61.77
2023-11-21T18:38:03.517Z,61.79
2023-11-21T18:40:33.427Z,60.63
2023-11-21T18:43:03.404Z,59.79
2023-11-21T18:45:30.371Z,59.08
2023-11-21T18:47:57.335Z,58.96
2023-11-21T18:50:27.435Z,58.76
2023-11-21T18:52:54.470Z,58.41
2023-11-21T18:55:24.390Z,58.38
2023-11-21T18:57:54.239Z,58.67
2023-11-21T19:00:21.083Z,58.35
2023-11-21T19:02:48.175Z,58.01
2023-11-21T19:05:15.009Z,58.83
2023-11-21T19:07:41.674Z,59.64
2023-11-21T19:10:08.295Z,60.13
2023-11-21T19:12:36.941Z,59.92
2023-11-21T19:15:03.928Z,60.59
2023-11-21T19:17:30.569Z,60.22
2023-11-21T19:19:57.205Z,60.28
2023-11-21T19:22:23.910Z,59.83
2023-11-21T19:24:50.532Z,59.96
2023-11-21T19:27:17.155Z,61.15
2023-11-21T19:29:43.778Z,60.14
2023-11-21T19:32:10.506Z,60.07
2023-11-21T19:34:37.184Z,60.91
2023-11-21T19:37:03.845Z,62.38
2023-11-21T19:39:30.442Z,63.37
2023-11-21T19:41:57.048Z,63.55
2023-11-21T19:44:23.656Z,63.43
2023-11-21T19:46:50.368Z,63.91
2023-11-21T19:49:17.004Z,64.50
2023-11-21T19:51:43.646Z,64.16
2023-11-21T19:54:10.322Z,63.12
2023-11-21T19:56:44.210Z,62.94
2023-11-21T19:59:23.744Z,61.78
2023-11-21T20:01:51.235Z,61.48
2023-11-21T20:04:20.447Z,60.49
2023-11-21T20:06:54.536Z,60.70
2023-11-21T20:18:47.652Z,60.60
2023-11-21T20:21:14.706Z,60.99
2023-11-21T20:26:43.564Z,61.23
2023-11-21T20:29:11.836Z,61.44
2023-11-21T20:31:43.436Z,61.99
2023-11-21T20:34:11.506Z,61.77
2023-11-21T20:42:35.415Z,62.64
2023-11-21T20:45:16.983Z,62.01
2023-11-21T20:47:46.186Z,62.13
2023-11-21T20:50:13.154Z,61.83
2023-11-21T20:52:53.189Z,62.24
2023-11-21T20:55:22.348Z,61.84
2023-11-21T20:57:49.195Z,61.50
2023-11-21T21:00:16.139Z,61.73
2023-11-21T21:02:44.622Z,61.95
2023-11-21T21:05:13.879Z,61.95
2023-11-21T21:07:41.023Z,62.36
2023-11-21T21:10:07.728Z,62.33
2023-11-21T21:12:37.696Z,63.28
2023-11-21T21:15:04.469Z,63.51
2023-11-21T21:17:31.220Z,63.79
2023-11-21T21:19:58.025Z,63.57
2023-11-21T21:22:24.745Z,63.04
2023-11-21T21:24:53.946Z,62.46
2023-11-21T21:27:23.438Z,62.01
2023-11-21T21:29:50.348Z,63.19
2023-11-21T21:32:17.256Z,62.62
2023-11-21T21:34:44.071Z,63.12
2023-11-21T21:37:10.905Z,64.31
2023-11-21T21:39:39.805Z,64.49
2023-11-21T21:42:06.572Z,64.94
2023-11-21T21:44:42.080Z,64.06
2023-11-21T21:47:10.124Z,65.49
2023-11-21T21:49:36.817Z,65.70
2023-11-21T21:52:04.706Z,64.99
2023-11-21T21:54:31.506Z,65.54
2023-11-21T21:56:58.206Z,64.81
2023-11-21T21:59:24.996Z,64.47
2023-11-21T22:01:53.685Z,64.76
2023-11-21T22:04:20.577Z,65.10
2023-11-21T22:06:47.477Z,65.00
2023-11-21T22:09:14.290Z,66.46
2023-11-21T22:11:43.101Z,65.92
2023-11-21T22:14:09.948Z,67.95
2023-11-21T22:16:50.762Z,67.77
2023-11-21T22:19:18.677Z,67.86
2023-11-21T22:21:45.386Z,67.93
2023-11-21T22:24:12.138Z,67.71
2023-11-21T22:26:41.225Z,67.42
2023-11-21T22:29:19.421Z,67.39
2023-11-21T22:31:47.706Z,68.31
2023-11-21T22:34:14.621Z,66.15
2023-11-21T22:36:42.646Z,64.54
2023-11-21T22:39:21.257Z,64.67
2023-11-21T22:56:20.005Z,62.64
2023-11-21T23:05:06.763Z,62.01
2023-11-21T23:07:41.852Z,62.08
2023-11-21T23:10:14.564Z,62.46
2023-11-21T23:12:41.388Z,62.47
2023-11-21T23:15:14.011Z,63.17
2023-11-21T23:17:45.183Z,63.29
2023-11-21T23:21:18.965Z,63.21
2023-11-21T23:28:40.113Z,62.65
2023-11-21T23:36:42.732Z,63.86
2023-11-21T23:39:27.439Z,63.65
2023-11-21T23:44:41.715Z,63.63
2023-11-21T23:47:19.195Z,64.02
2023-11-21T23:49:56.006Z,63.51
2023-11-21T23:52:23.959Z,62.90
2023-11-21T23:57:48.874Z,63.68
